Time;durP1;ratioP1;P1;durP2;ratioP2;P2;SDS_P1;SDS_P2;PMS_P1;PMS_P2;Temp;Humidity;BMP_temperature;BMP_pressure;BME280_temperature;BME280_humidity;BME280_pressure;Samples;Min_cycle;Max_cycle;Signal;HPM_P1;HPM_P2
2021/01/26 00:00:20;;;;;;;47.42;23.00;;;0.80;99.90;;;;;;5055380;28;20148;-87
2021/01/26 00:03:16;;;;;;;45.35;21.35;;;0.80;99.90;;;;;;5027740;28;20136;-87
2021/01/26 00:05:55;;;;;;;44.20;22.27;;;0.80;99.90;;;;;;5038581;28;20160;-87
2021/01/26 00:08:47;;;;;;;43.72;22.85;;;0.80;99.90;;;;;;5075558;28;20411;-87
2021/01/26 00:11:26;;;;;;;39.88;22.15;;;0.80;99.90;;;;;;5060270;28;20096;-88
2021/01/26 00:14:21;;;;;;;46.28;22.25;;;0.90;99.90;;;;;;5055676;28;20112;-87
2021/01/26 00:17:02;;;;;;;40.88;21.33;;;0.80;99.90;;;;;;5071216;28;20206;-88
2021/01/26 00:19:56;;;;;;;40.70;19.80;;;0.80;99.90;;;;;;5030758;28;20494;-88
2021/01/26 00:22:35;;;;;;;38.28;19.48;;;0.80;99.90;;;;;;5030620;28;20493;-88
2021/01/26 00:25:28;;;;;;;35.97;18.62;;;0.80;99.90;;;;;;5022814;28;20486;-88
2021/01/26 00:28:13;;;;;;;42.75;19.95;;;0.80;99.90;;;;;;5087498;28;20107;-88
2021/01/26 00:31:07;;;;;;;39.63;18.85;;;0.80;99.90;;;;;;5049668;28;20112;-88
2021/01/26 00:33:46;;;;;;;36.50;19.23;;;0.80;99.90;;;;;;5100674;28;20110;-88
2021/01/26 00:36:41;;;;;;;35.63;20.60;;;0.80;99.90;;;;;;5002654;28;20133;-87
2021/01/26 00:39:23;;;;;;;36.85;19.20;;;0.80;99.90;;;;;;5050834;28;20088;-88
2021/01/26 00:42:17;;;;;;;38.80;20.27;;;0.90;99.90;;;;;;5049126;28;20175;-88
2021/01/26 00:45:12;;;;;;;42.25;20.33;;;0.90;99.90;;;;;;5039408;28;20101;-88
2021/01/26 00:47:54;;;;;;;42.40;20.70;;;0.90;99.90;;;;;;5066633;28;20588;-88
2021/01/26 00:50:49;;;;;;;42.45;20.55;;;0.90;99.90;;;;;;5046477;28;20140;-88
2021/01/26 00:53:40;;;;;;;38.92;19.35;;;0.90;99.90;;;;;;5081021;28;20173;-88
2021/01/26 00:56:35;;;;;;;38.35;18.83;;;0.90;99.90;;;;;;5043406;28;20097;-88
2021/01/26 00:59:29;;;;;;;43.05;20.00;;;0.90;99.90;;;;;;5050056;28;20214;-88
2021/01/26 01:02:22;;;;;;;39.20;19.55;;;0.90;99.90;;;;;;5013812;28;20106;-88
2021/01/26 01:05:16;;;;;;;41.40;19.12;;;0.90;99.90;;;;;;5068357;28;20096;-88
2021/01/26 01:07:55;;;;;;;40.60;19.85;;;0.90;99.90;;;;;;5041106;28;20479;-88
2021/01/26 01:10:47;;;;;;;35.33;18.23;;;0.90;99.90;;;;;;5026240;28;20171;-88
2021/01/26 01:13:29;;;;;;;40.42;19.02;;;0.90;99.90;;;;;;5105047;28;20099;-88
2021/01/26 01:16:23;;;;;;;34.90;18.12;;;0.80;99.90;;;;;;5026470;28;20108;-88
2021/01/26 01:19:05;;;;;;;35.70;19.52;;;0.90;99.90;;;;;;4986181;28;20101;-88
2021/01/26 01:21:56;;;;;;;38.55;18.42;;;0.80;99.90;;;;;;5018826;28;20097;-88
2021/01/26 01:24:35;;;;;;;35.63;18.65;;;0.90;99.90;;;;;;4984495;28;20093;-87
2021/01/26 01:27:29;;;;;;;33.88;17.17;;;0.80;99.90;;;;;;5083031;28;20092;-89
2021/01/26 01:30:10;;;;;;;36.28;18.20;;;0.90;99.90;;;;;;5040871;28;20499;-89
2021/01/26 01:33:06;;;;;;;36.88;18.48;;;0.80;99.90;;;;;;5006408;28;20108;-88
2021/01/26 01:35:48;;;;;;;35.70;18.17;;;0.80;99.90;;;;;;5040958;28;20124;-88
2021/01/26 01:38:40;;;;;;;37.45;16.52;;;0.80;99.90;;;;;;5049874;28;20509;-88
2021/01/26 01:41:19;;;;;;;37.97;18.98;;;0.80;99.90;;;;;;5041416;28;20139;-88
2021/01/26 01:44:16;;;;;;;36.25;19.12;;;0.80;99.90;;;;;;5034701;28;20579;-88
2021/01/26 01:46:56;;;;;;;43.35;19.58;;;0.80;99.90;;;;;;5075480;28;20111;-87
2021/01/26 01:49:53;;;;;;;41.17;19.83;;;0.80;99.90;;;;;;5035881;28;20111;-87
2021/01/26 01:52:48;;;;;;;38.38;17.98;;;0.80;99.90;;;;;;5076455;28;20108;-87
2021/01/26 01:55:45;;;;;;;40.33;18.77;;;0.80;99.90;;;;;;5056220;28;20096;-88
2021/01/26 01:58:30;;;;;;;32.15;18.42;;;0.80;99.90;;;;;;5039267;28;20137;-87
2021/01/26 02:01:26;;;;;;;35.75;18.02;;;0.80;99.90;;;;;;5018431;28;20123;-87
2021/01/26 02:04:23;;;;;;;33.08;17.33;;;0.90;99.90;;;;;;5042786;28;20482;-86
2021/01/26 02:07:05;;;;;;;36.60;18.58;;;0.80;99.90;;;;;;5044715;28;20093;-87
2021/01/26 02:09:56;;;;;;;37.08;18.02;;;0.90;99.90;;;;;;5076311;28;20092;-87
2021/01/26 02:12:38;;;;;;;32.33;16.98;;;0.90;99.90;;;;;;5054142;28;20135;-86
2021/01/26 02:15:33;;;;;;;37.17;18.42;;;0.80;99.90;;;;;;5071276;28;20124;-87
2021/01/26 02:18:33;;;;;;;32.85;18.20;;;0.90;99.90;;;;;;5024955;28;20144;-87
2021/01/26 02:22:05;;;;;;;34.70;17.70;;;0.80;99.90;;;;;;5077599;28;20111;-87
2021/01/26 02:24:58;;;;;;;34.22;17.27;;;0.80;99.90;;;;;;5103584;28;20472;-87
2021/01/26 02:28:00;;;;;;;35.00;18.15;;;0.80;99.90;;;;;;4773880;27;20627;-88
2021/01/26 02:30:48;;;;;;;36.95;17.73;;;0.80;99.90;;;;;;5038402;28;20107;-88
2021/01/26 02:33:49;;;;;;;35.92;16.25;;;0.80;99.90;;;;;;5045207;28;20525;-87
2021/01/26 02:36:49;;;;;;;35.72;18.12;;;0.80;99.90;;;;;;5080136;28;20106;-87
2021/01/26 02:40:12;;;;;;;31.20;16.70;;;0.80;99.90;;;;;;5058676;28;20908;-87
2021/01/26 02:43:16;;;;;;;31.00;16.75;;;0.80;99.90;;;;;;5048765;28;20140;-87
2021/01/26 02:46:14;;;;;;;40.83;16.75;;;0.80;99.90;;;;;;5075326;28;20096;-87
2021/01/26 02:49:03;;;;;;;45.53;20.40;;;0.80;99.90;;;;;;5043265;28;20084;-87
2021/01/26 02:52:05;;;;;;;42.70;19.27;;;0.80;99.90;;;;;;5070508;28;20358;-87
2021/01/26 02:55:03;;;;;;;36.88;16.98;;;0.80;99.90;;;;;;5062826;28;20104;-87
2021/01/26 02:58:10;;;;;;;35.05;16.62;;;0.80;99.90;;;;;;5074479;28;20764;-87
2021/01/26 03:00:54;;;;;;;31.55;15.80;;;0.80;99.90;;;;;;5046577;28;20154;-87
2021/01/26 03:03:52;;;;;;;31.87;17.27;;;0.90;99.90;;;;;;5058368;28;20097;-87
2021/01/26 03:06:31;;;;;;;30.98;16.45;;;0.90;99.90;;;;;;5063610;28;20148;-88
2021/01/26 03:09:37;;;;;;;31.15;17.02;;;0.80;99.90;;;;;;5039031;28;20097;-85
2021/01/26 03:12:25;;;;;;;33.63;17.67;;;0.80;99.90;;;;;;5092667;28;20088;-85
2021/01/26 03:15:28;;;;;;;29.17;15.52;;;0.80;99.90;;;;;;5037997;28;20085;-85
2021/01/26 03:18:09;;;;;;;36.70;18.08;;;0.80;99.90;;;;;;5083752;28;20096;-85
2021/01/26 03:21:02;;;;;;;31.17;15.52;;;0.80;99.90;;;;;;5049878;28;20819;-85
2021/01/26 03:23:59;;;;;;;30.77;16.42;;;0.80;99.90;;;;;;5053844;28;20104;-85
2021/01/26 03:26:51;;;;;;;30.80;16.48;;;0.80;99.90;;;;;;5038120;28;20107;-85
2021/01/26 03:29:31;;;;;;;30.27;16.48;;;0.80;99.90;;;;;;5039757;28;20103;-85
2021/01/26 03:32:31;;;;;;;30.27;16.67;;;0.80;99.90;;;;;;5022662;28;20100;-85
2021/01/26 03:35:11;;;;;;;31.73;16.67;;;0.80;99.90;;;;;;5046387;28;20107;-84
2021/01/26 03:38:25;;;;;;;35.47;16.75;;;0.70;99.90;;;;;;4999741;28;20088;-84
2021/01/26 03:41:05;;;;;;;30.60;16.92;;;0.70;99.90;;;;;;5045770;28;20142;-85
2021/01/26 03:44:00;;;;;;;30.88;17.02;;;0.70;99.90;;;;;;5018970;28;20489;-85
2021/01/26 03:47:00;;;;;;;28.08;16.30;;;0.70;99.90;;;;;;5042393;28;20148;-84
2021/01/26 03:50:26;;;;;;;37.50;17.98;;;0.70;99.90;;;;;;5035483;28;20103;-85
2021/01/26 03:53:27;;;;;;;31.15;17.62;;;0.70;99.90;;;;;;5062062;28;20179;-85
2021/01/26 03:56:30;;;;;;;36.00;18.17;;;0.70;99.90;;;;;;5024533;28;20088;-85
2021/01/26 03:59:24;;;;;;;42.45;18.70;;;0.70;99.90;;;;;;5038388;28;20093;-84
2021/01/26 04:02:39;;;;;;;37.35;17.52;;;0.70;99.90;;;;;;5035360;28;20104;-85
2021/01/26 04:05:53;;;;;;;35.08;19.48;;;0.70;99.90;;;;;;5070432;28;20092;-85
2021/01/26 04:08:42;;;;;;;35.03;16.60;;;0.70;99.90;;;;;;5094596;28;20147;-85
2021/01/26 04:11:38;;;;;;;33.95;16.30;;;0.70;99.90;;;;;;5022956;28;20478;-85
2021/01/26 04:14:31;;;;;;;34.38;18.30;;;0.60;99.90;;;;;;5095547;28;20150;-85
2021/01/26 04:17:29;;;;;;;34.97;18.25;;;0.60;99.90;;;;;;5045578;28;20154;-85
2021/01/26 04:20:14;;;;;;;35.55;17.98;;;0.60;99.90;;;;;;5044375;28;20887;-84
2021/01/26 04:23:06;;;;;;;32.90;17.80;;;0.60;99.90;;;;;;4994065;28;20089;-85
2021/01/26 04:25:48;;;;;;;31.37;17.98;;;0.60;99.90;;;;;;5088399;28;20108;-88
2021/01/26 04:28:44;;;;;;;35.25;18.33;;;0.60;99.90;;;;;;5036876;28;20183;-88
2021/01/26 04:31:26;;;;;;;34.13;18.20;;;0.60;99.90;;;;;;5040085;28;20101;-88
2021/01/26 04:34:23;;;;;;;33.53;16.98;;;0.60;99.90;;;;;;5064105;28;20501;-88
2021/01/26 04:37:03;;;;;;;35.80;17.60;;;0.50;99.90;;;;;;5086137;28;20095;-85
2021/01/26 04:39:56;;;;;;;39.28;18.15;;;0.60;99.90;;;;;;5042605;28;20103;-85
2021/01/26 04:42:38;;;;;;;35.53;18.10;;;0.50;99.90;;;;;;5059743;28;20091;-84
2021/01/26 04:45:52;;;;;;;31.05;17.65;;;0.50;99.90;;;;;;5078968;28;20100;-87
2021/01/26 04:48:32;;;;;;;;;;;0.50;99.90;;;;;;5085847;28;20079;-87
2021/01/26 04:52:16;;;;;;;34.38;18.30;;;0.50;99.90;;;;;;5059439;28;20037;-87
2021/01/26 04:55:22;;;;;;;36.45;18.00;;;0.50;99.90;;;;;;5017614;28;20090;-87
2021/01/26 04:58:28;;;;;;;38.95;18.67;;;0.50;99.90;;;;;;5034047;28;20093;-87
2021/01/26 05:01:41;;;;;;;35.13;17.23;;;0.50;99.90;;;;;;5078841;28;20110;-87
2021/01/26 05:04:42;;;;;;;33.25;18.73;;;0.50;99.90;;;;;;5037295;28;20095;-88
2021/01/26 05:07:34;;;;;;;30.27;17.20;;;0.50;99.90;;;;;;5075840;28;20092;-88
2021/01/26 05:10:50;;;;;;;32.10;17.95;;;0.50;99.90;;;;;;5033596;28;20120;-88
2021/01/26 05:13:37;;;;;;;36.80;17.73;;;0.50;99.90;;;;;;5090519;28;20454;-86
2021/01/26 05:16:42;;;;;;;33.15;17.65;;;0.50;99.90;;;;;;5043204;28;20088;-88
2021/01/26 05:19:41;;;;;;;31.90;17.33;;;0.50;99.90;;;;;;5045654;28;20107;-85
2021/01/26 05:22:48;;;;;;;39.42;18.77;;;0.60;99.90;;;;;;5007051;28;20494;-85
2021/01/26 05:25:29;;;;;;;34.83;19.10;;;0.60;99.90;;;;;;5039163;28;20479;-85
2021/01/26 05:28:23;;;;;;;32.05;17.75;;;0.50;99.90;;;;;;5078597;28;20386;-85
2021/01/26 05:31:07;;;;;;;40.58;19.83;;;0.60;99.90;;;;;;5024207;28;20112;-86
2021/01/26 05:34:09;;;;;;;55.33;21.70;;;0.50;99.90;;;;;;5082586;28;20173;-88
2021/01/26 05:36:48;;;;;;;37.22;20.08;;;0.60;99.90;;;;;;5058345;28;20093;-88
2021/01/26 05:39:52;;;;;;;35.67;17.12;;;0.60;99.90;;;;;;5029758;28;20104;-88
2021/01/26 05:42:32;;;;;;;47.15;22.92;;;0.60;99.90;;;;;;5040419;28;20475;-88
2021/01/26 05:45:34;;;;;;;51.83;22.85;;;0.60;99.90;;;;;;5055223;28;20103;-88
2021/01/26 05:48:17;;;;;;;41.75;22.00;;;0.60;99.90;;;;;;5044018;28;20092;-87
2021/01/26 05:51:24;;;;;;;44.80;20.65;;;0.60;99.90;;;;;;5116290;28;20111;-84
2021/01/26 05:54:20;;;;;;;45.95;22.05;;;0.60;99.90;;;;;;5084231;28;20084;-85
2021/01/26 05:57:30;;;;;;;46.42;23.40;;;0.60;99.90;;;;;;5030417;28;20474;-86
2021/01/26 06:00:27;;;;;;;48.85;23.65;;;0.60;99.90;;;;;;5015269;28;20108;-85
2021/01/26 06:03:21;;;;;;;41.20;21.60;;;0.60;99.90;;;;;;5029699;28;20092;-85
2021/01/26 06:06:14;;;;;;;44.53;23.35;;;0.60;99.90;;;;;;5068265;28;20140;-85
2021/01/26 06:09:06;;;;;;;44.75;24.70;;;0.60;99.90;;;;;;5061935;28;20445;-85
2021/01/26 06:11:45;;;;;;;50.85;25.42;;;0.50;99.90;;;;;;5059274;28;20146;-85
2021/01/26 06:14:40;;;;;;;49.22;24.92;;;0.50;99.90;;;;;;5091381;28;20876;-85
2021/01/26 06:17:24;;;;;;;44.25;24.08;;;0.50;99.90;;;;;;5015461;28;20153;-85
2021/01/26 06:20:23;;;;;;;49.10;24.02;;;0.50;99.90;;;;;;5056595;28;20123;-84
2021/01/26 06:23:13;;;;;;;42.15;22.98;;;0.50;99.90;;;;;;5048714;28;20143;-85
2021/01/26 06:26:09;;;;;;;39.38;23.27;;;0.50;99.90;;;;;;5033488;28;20096;-85
2021/01/26 06:29:14;;;;;;;45.53;23.15;;;0.60;99.90;;;;;;5079038;28;20110;-85
2021/01/26 06:32:38;;;;;;;45.25;22.60;;;0.60;99.90;;;;;;5032197;28;20116;-85
2021/01/26 06:35:42;;;;;;;41.53;22.17;;;0.60;99.90;;;;;;5079159;28;20461;-85
2021/01/26 06:38:50;;;;;;;38.22;20.15;;;0.70;99.90;;;;;;5063747;28;20088;-85
2021/01/26 06:41:38;;;;;;;43.50;22.02;;;0.70;99.90;;;;;;5055495;28;20483;-85
2021/01/26 06:44:48;;;;;;;41.10;22.37;;;0.70;99.90;;;;;;5093350;28;20393;-86
2021/01/26 06:47:41;;;;;;;;;;;0.70;99.90;;;;;;5074245;28;20092;-85
2021/01/26 06:51:01;;;;;;;41.33;23.10;;;0.70;99.90;;;;;;5069188;28;19965;-86
2021/01/26 06:53:43;;;;;;;44.15;22.87;;;0.70;99.90;;;;;;5044861;28;20150;-88
2021/01/26 06:57:03;;;;;;;40.22;23.40;;;0.70;99.90;;;;;;5057749;28;20092;-89
2021/01/26 07:00:07;;;;;;;43.33;23.48;;;0.70;99.90;;;;;;5109489;27;20091;-88
2021/01/26 07:03:27;;;;;;;41.55;23.00;;;0.70;99.90;;;;;;5097867;28;20107;-85
2021/01/26 07:06:37;;;;;;;47.05;24.90;;;0.60;99.90;;;;;;5112578;28;20105;-85
2021/01/26 07:09:40;;;;;;;48.92;25.02;;;0.70;99.90;;;;;;5073379;28;20580;-85
2021/01/26 07:12:27;;;;;;;43.97;24.33;;;0.70;99.90;;;;;;5079681;28;20112;-86
2021/01/26 07:15:28;;;;;;;41.75;23.75;;;0.70;99.90;;;;;;4742264;28;20100;-86
2021/01/26 07:18:10;;;;;;;45.92;23.40;;;0.70;99.90;;;;;;5072993;28;20100;-85
2021/01/26 07:21:45;;;;;;;48.83;26.73;;;0.70;99.90;;;;;;5038387;28;20182;-86
2021/01/26 07:24:47;;;;;;;48.03;25.52;;;0.70;99.90;;;;;;5057747;28;20110;-85
2021/01/26 07:28:35;;;;;;;47.80;25.27;;;0.70;99.90;;;;;;5042272;28;20089;-86
2021/01/26 07:31:21;;;;;;;45.47;25.67;;;0.70;99.90;;;;;;4998788;28;20115;-85
2021/01/26 07:34:27;;;;;;;53.08;29.17;;;0.70;99.90;;;;;;5051538;28;20106;-86
2021/01/26 07:37:09;;;;;;;49.42;26.15;;;0.70;99.90;;;;;;5037634;28;20370;-85
2021/01/26 07:40:07;;;;;;;53.58;29.73;;;0.70;99.90;;;;;;5062714;28;20096;-86
2021/01/26 07:42:55;;;;;;;113.07;45.40;;;0.70;99.90;;;;;;5024148;28;20104;-85
2021/01/26 07:46:10;;;;;;;79.07;36.97;;;0.80;99.90;;;;;;5087758;28;20378;-85
2021/01/26 07:49:07;;;;;;;56.70;29.52;;;0.80;99.90;;;;;;5083980;28;20191;-84
2021/01/26 07:52:02;;;;;;;49.17;28.10;;;0.90;99.90;;;;;;5036597;28;20166;-84
2021/01/26 07:54:42;;;;;;;40.78;23.62;;;0.90;99.90;;;;;;5097650;28;20165;-84
2021/01/26 07:57:58;;;;;;;46.20;25.73;;;1.00;99.90;;;;;;5037653;28;20085;-85
2021/01/26 08:00:29;;;;;;;39.10;23.08;;;1.00;99.90;;;;;;5034933;28;20088;-85
2021/01/26 08:03:23;;;;;;;44.33;25.23;;;1.00;99.90;;;;;;5036126;28;20179;-85
2021/01/26 08:06:02;;;;;;;43.75;24.12;;;1.00;99.90;;;;;;5070373;28;20088;-84
2021/01/26 08:08:54;;;;;;;40.65;22.25;;;0.90;99.90;;;;;;5061834;28;20515;-85
2021/01/26 08:11:33;;;;;;;41.75;22.98;;;0.90;99.90;;;;;;5044665;28;20144;-84
2021/01/26 08:14:33;;;;;;;44.30;23.98;;;0.80;99.90;;;;;;5076044;28;20139;-85
2021/01/26 08:17:14;;;;;;;37.15;22.90;;;0.80;99.90;;;;;;5038946;28;20112;-85
2021/01/26 08:20:05;;;;;;;36.95;23.25;;;0.80;99.90;;;;;;4987001;28;20562;-86
2021/01/26 08:22:59;;;;;;;43.28;25.83;;;0.80;99.90;;;;;;5045185;28;20213;-85
2021/01/26 08:25:53;;;;;;;37.70;23.27;;;0.80;99.90;;;;;;5064997;28;20171;-85
2021/01/26 08:28:38;;;;;;;42.15;22.75;;;0.80;99.90;;;;;;5079459;28;20453;-85
2021/01/26 08:31:35;;;;;;;41.92;23.38;;;0.80;99.90;;;;;;5077643;28;20501;-84
2021/01/26 08:34:21;;;;;;;37.13;22.40;;;0.90;99.90;;;;;;5020861;28;20088;-85
2021/01/26 08:37:20;;;;;;;40.53;24.00;;;0.80;99.90;;;;;;5082825;28;20110;-86
2021/01/26 08:40:00;;;;;;;37.40;20.65;;;0.90;99.90;;;;;;5034531;28;20093;-85
2021/01/26 08:43:06;;;;;;;33.65;19.62;;;0.80;99.90;;;;;;5043709;28;20103;-86
2021/01/26 08:45:48;;;;;;;30.45;19.50;;;0.90;99.90;;;;;;5094000;28;20101;-85
2021/01/26 08:48:43;;;;;;;37.22;20.37;;;0.80;99.90;;;;;;5075885;28;20102;-85
2021/01/26 08:51:24;;;;;;;32.65;19.65;;;0.80;99.90;;;;;;5070821;28;20493;-85
2021/01/26 08:54:44;;;;;;;35.10;19.17;;;0.80;99.90;;;;;;5037534;28;20124;-85
2021/01/26 08:57:28;;;;;;;29.15;17.77;;;0.80;99.90;;;;;;5046511;28;20137;-85
2021/01/26 09:00:35;;;;;;;31.62;19.55;;;0.80;99.90;;;;;;5096056;28;20382;-84
2021/01/26 09:03:32;;;;;;;30.95;19.40;;;0.80;99.90;;;;;;5044918;28;20096;-85
2021/01/26 09:06:43;;;;;;;30.80;18.20;;;0.80;99.90;;;;;;5043768;28;20107;-84
2021/01/26 09:09:31;;;;;;;28.23;17.90;;;0.80;99.90;;;;;;5074669;28;20136;-85
2021/01/26 09:12:25;;;;;;;25.30;16.73;;;0.90;99.90;;;;;;5082837;28;20092;-86
2021/01/26 09:15:05;;;;;;;28.27;17.27;;;0.90;99.90;;;;;;5051059;28;20180;-85
2021/01/26 09:17:59;;;;;;;25.92;17.05;;;0.90;99.90;;;;;;5054853;28;20096;-86
2021/01/26 09:20:29;;;;;;;27.67;18.02;;;0.90;99.90;;;;;;5073086;28;20093;-86
2021/01/26 09:23:21;;;;;;;31.48;18.15;;;0.90;99.90;;;;;;5062401;28;20107;-85
2021/01/26 09:26:13;;;;;;;29.33;18.20;;;0.90;99.90;;;;;;5075416;28;20089;-86
2021/01/26 09:29:04;;;;;;;28.40;17.42;;;0.90;99.90;;;;;;5054055;28;20092;-85
2021/01/26 09:31:44;;;;;;;28.52;18.23;;;0.90;99.90;;;;;;5064231;28;20142;-85
2021/01/26 09:34:39;;;;;;;29.27;17.70;;;0.90;99.90;;;;;;4995826;28;20085;-84
2021/01/26 09:37:24;;;;;;;27.27;17.58;;;0.90;99.90;;;;;;5021817;28;20108;-85
2021/01/26 09:40:18;;;;;;;27.48;18.35;;;1.00;99.90;;;;;;5034107;28;20089;-84
2021/01/26 09:43:24;;;;;;;28.27;18.87;;;1.00;99.90;;;;;;5007472;28;20514;-84
2021/01/26 09:46:35;;;;;;;28.98;18.02;;;1.00;99.90;;;;;;4991328;28;20102;-85
2021/01/26 09:49:17;;;;;;;35.00;17.85;;;1.00;99.90;;;;;;4963804;28;20373;-85
2021/01/26 09:52:15;;;;;;;29.42;18.40;;;1.10;99.90;;;;;;4978482;28;20121;-86
2021/01/26 09:55:12;;;;;;;28.15;17.45;;;1.10;99.90;;;;;;4985878;28;20109;-85
2021/01/26 09:58:04;;;;;;;23.27;15.93;;;1.10;99.90;;;;;;5036516;28;20182;-85
2021/01/26 10:00:45;;;;;;;25.25;14.93;;;1.10;99.90;;;;;;4989358;28;20144;-85
2021/01/26 10:03:42;;;;;;;26.60;14.90;;;1.10;99.90;;;;;;5036827;28;20096;-85
2021/01/26 10:06:37;;;;;;;26.52;15.23;;;1.10;99.90;;;;;;5058649;28;20097;-83
2021/01/26 10:09:31;;;;;;;21.55;14.25;;;1.10;99.90;;;;;;5041656;28;20116;-82
2021/01/26 10:12:34;;;;;;;24.12;15.30;;;1.20;99.90;;;;;;5043380;28;20360;-83
2021/01/26 10:15:30;;;;;;;23.48;14.93;;;1.10;99.90;;;;;;5070601;28;20160;-83
2021/01/26 10:18:17;;;;;;;24.58;14.95;;;1.20;99.90;;;;;;5097736;28;20103;-82
2021/01/26 10:21:13;;;;;;;29.50;14.87;;;1.20;99.90;;;;;;5013905;28;20543;-83
2021/01/26 10:23:59;;;;;;;25.17;15.25;;;1.30;99.90;;;;;;5038651;28;20104;-82
2021/01/26 10:26:52;;;;;;;25.15;14.38;;;1.30;99.90;;;;;;5037451;28;20446;-84
2021/01/26 10:29:42;;;;;;;23.70;15.30;;;1.40;99.90;;;;;;5043740;28;20140;-84
2021/01/26 10:32:47;;;;;;;22.55;14.35;;;1.40;99.90;;;;;;5077373;28;20210;-84
2021/01/26 10:35:36;;;;;;;23.75;12.80;;;1.40;99.90;;;;;;5046348;28;20092;-84
2021/01/26 10:38:41;;;;;;;22.52;13.52;;;1.40;99.90;;;;;;5037042;28;20178;-84
2021/01/26 10:41:27;;;;;;;22.83;13.25;;;1.50;99.90;;;;;;5090304;28;20139;-84
2021/01/26 10:44:21;;;;;;;25.17;13.60;;;1.50;99.90;;;;;;5033145;28;20095;-84
2021/01/26 10:47:00;;;;;;;20.35;13.35;;;1.50;99.90;;;;;;5070109;28;20089;-84
2021/01/26 10:50:13;;;;;;;20.35;12.25;;;1.60;99.90;;;;;;5064571;28;20114;-85
2021/01/26 10:52:53;;;;;;;20.40;12.88;;;1.60;99.90;;;;;;5097880;28;20080;-85
2021/01/26 10:55:43;;;;;;;21.48;13.07;;;1.70;99.90;;;;;;5084906;28;20092;-84
2021/01/26 10:58:22;;;;;;;20.73;13.13;;;1.70;99.90;;;;;;5100950;28;20114;-85
2021/01/26 11:01:20;;;;;;;22.98;13.70;;;1.70;99.90;;;;;;5061898;28;20097;-87
2021/01/26 11:03:59;;;;;;;20.27;13.48;;;1.70;99.90;;;;;;5057751;28;20148;-87
2021/01/26 11:06:52;;;;;;;21.85;14.02;;;1.70;99.90;;;;;;5040462;28;20129;-84
2021/01/26 11:09:34;;;;;;;22.08;13.55;;;1.70;99.90;;;;;;5057627;28;20112;-85
2021/01/26 11:12:31;;;;;;;20.58;12.20;;;1.80;99.90;;;;;;5044684;28;20489;-85
2021/01/26 11:15:17;;;;;;;23.10;13.13;;;1.80;99.90;;;;;;5059493;28;20160;-85
2021/01/26 11:18:16;;;;;;;20.77;13.30;;;1.80;99.90;;;;;;5038642;28;20120;-84
2021/01/26 11:20:55;;;;;;;24.60;13.27;;;1.80;99.90;;;;;;5069161;28;20096;-85
2021/01/26 11:23:47;;;;;;;21.80;13.65;;;1.80;99.90;;;;;;5017965;28;20391;-89
2021/01/26 11:26:27;;;;;;;21.92;12.30;;;1.90;99.90;;;;;;5119142;28;20147;-88
2021/01/26 11:29:17;;;;;;;20.35;13.05;;;1.80;99.90;;;;;;5067956;28;20122;-87
2021/01/26 11:31:56;;;;;;;25.17;12.68;;;1.80;99.90;;;;;;5064748;28;20092;-90
2021/01/26 11:34:51;;;;;;;22.17;13.77;;;1.90;99.90;;;;;;5059244;28;20143;-89
2021/01/26 11:37:46;;;;;;;19.65;13.13;;;1.90;99.90;;;;;;5047218;28;20135;-88
2021/01/26 11:40:39;;;;;;;20.27;12.00;;;1.90;99.90;;;;;;5001205;28;20490;-85
2021/01/26 11:43:18;;;;;;;17.85;12.25;;;1.90;99.90;;;;;;5036878;28;20101;-85
2021/01/26 11:46:10;;;;;;;20.48;11.90;;;1.90;99.90;;;;;;5056997;28;20144;-86
2021/01/26 11:48:49;;;;;;;20.37;10.50;;;2.00;99.90;;;;;;5077174;28;20172;-85
2021/01/26 11:51:41;;;;;;;16.42;10.57;;;2.00;99.90;;;;;;5063240;28;20100;-85
2021/01/26 11:54:21;;;;;;;24.65;10.80;;;2.00;99.90;;;;;;5062991;28;20148;-86
2021/01/26 11:57:12;;;;;;;16.10;10.35;;;2.00;99.90;;;;;;5044824;28;20171;-85
2021/01/26 11:59:51;;;;;;;19.45;10.98;;;2.00;99.90;;;;;;5075208;28;20413;-85
2021/01/26 12:02:39;;;;;;;16.42;9.18;;;2.10;99.90;;;;;;5050898;28;20175;-84
2021/01/26 12:05:33;;;;;;;14.25;9.60;;;2.10;99.90;;;;;;5009346;28;20185;-84
2021/01/26 12:08:12;;;;;;;14.63;9.40;;;2.10;99.90;;;;;;5017818;28;20458;-84
2021/01/26 12:11:05;;;;;;;16.33;10.80;;;2.20;99.90;;;;;;4706953;28;20108;-84
2021/01/26 12:13:43;;;;;;;17.75;10.68;;;2.20;99.90;;;;;;4976228;28;20102;-88
2021/01/26 12:16:34;;;;;;;18.02;10.75;;;2.30;99.90;;;;;;5012610;28;20092;-87
2021/01/26 12:19:14;;;;;;;16.52;10.55;;;2.50;99.90;;;;;;5057054;28;20080;-89
2021/01/26 12:22:07;;;;;;;18.25;11.50;;;2.50;99.90;;;;;;5001090;28;20149;-89
2021/01/26 12:24:46;;;;;;;16.42;10.30;;;2.60;99.90;;;;;;5099109;28;20507;-85
2021/01/26 12:27:38;;;;;;;15.25;10.05;;;2.60;99.90;;;;;;5030767;28;20080;-84
2021/01/26 12:30:07;;;;;;;19.05;10.27;;;2.70;99.90;;;;;;5040488;28;20088;-85
2021/01/26 12:32:59;;;;;;;15.45;10.27;;;2.70;99.90;;;;;;5053524;28;20466;-85
2021/01/26 12:35:38;;;;;;;14.95;8.70;;;2.80;99.90;;;;;;5050021;28;20085;-85
2021/01/26 12:38:31;;;;;;;13.40;9.15;;;2.80;99.90;;;;;;5044047;28;20111;-85
2021/01/26 12:41:09;;;;;;;15.55;9.13;;;2.80;99.90;;;;;;5025993;28;20839;-87
2021/01/26 12:44:02;;;;;;;15.25;9.95;;;2.80;99.90;;;;;;5010603;28;20490;-87
2021/01/26 12:46:41;;;;;;;16.73;9.52;;;2.80;99.90;;;;;;5052790;28;20089;-86
2021/01/26 12:49:32;;;;;;;15.77;9.45;;;2.80;99.90;;;;;;5043048;28;20103;-86
2021/01/26 12:52:11;;;;;;;15.20;9.20;;;2.80;99.90;;;;;;5050700;28;20115;-87
2021/01/26 12:55:09;;;;;;;15.50;9.60;;;2.80;99.90;;;;;;5059932;28;20085;-88
2021/01/26 12:58:00;;;;;;;14.05;8.38;;;2.80;99.90;;;;;;5027048;28;20092;-87
2021/01/26 13:00:52;;;;;;;15.90;9.70;;;2.80;99.90;;;;;;5041620;28;20084;-87
2021/01/26 13:03:45;;;;;;;15.57;10.30;;;2.80;99.90;;;;;;5102558;28;20132;-87
2021/01/26 13:06:45;;;;;;;15.75;9.45;;;2.80;99.90;;;;;;5066308;28;20152;-87
2021/01/26 13:09:24;;;;;;;13.82;8.85;;;2.80;99.90;;;;;;5030976;28;20148;-86
2021/01/26 13:12:16;;;;;;;16.67;9.02;;;2.80;99.90;;;;;;5076202;28;20103;-88
2021/01/26 13:15:10;;;;;;;14.45;8.68;;;2.80;99.90;;;;;;5065022;28;20102;-87
2021/01/26 13:18:04;;;;;;;14.70;8.93;;;2.70;99.90;;;;;;5027095;28;20089;-86
2021/01/26 13:20:43;;;;;;;16.10;10.30;;;2.80;99.90;;;;;;5004806;28;20112;-87
2021/01/26 13:23:35;;;;;;;15.00;8.15;;;2.80;99.90;;;;;;5026852;28;20179;-87
2021/01/26 13:26:17;;;;;;;14.55;7.47;;;2.80;99.90;;;;;;5056169;28;20182;-87
2021/01/26 13:29:08;;;;;;;13.00;6.47;;;2.80;99.90;;;;;;5023437;28;20112;-87
2021/01/26 13:31:47;;;;;;;10.02;6.45;;;2.90;99.90;;;;;;5079481;28;20481;-86
2021/01/26 13:34:39;;;;;;;13.32;8.20;;;2.90;99.90;;;;;;5005746;28;20089;-87
2021/01/26 13:37:17;;;;;;;12.43;8.43;;;3.00;99.90;;;;;;5039191;28;20100;-88
2021/01/26 13:40:09;;;;;;;11.82;7.53;;;3.10;99.90;;;;;;5052880;28;20415;-87
2021/01/26 13:42:48;;;;;;;13.38;8.13;;;3.20;99.90;;;;;;5024883;28;20096;-87
2021/01/26 13:45:40;;;;;;;12.20;8.05;;;3.10;99.90;;;;;;5029599;28;20085;-87
2021/01/26 13:48:22;;;;;;;17.08;9.88;;;3.20;99.90;;;;;;5064792;28;20087;-87
2021/01/26 13:51:14;;;;;;;14.25;7.12;;;3.20;99.90;;;;;;5069861;28;20121;-87
2021/01/26 13:53:56;;;;;;;18.73;9.35;;;3.20;99.90;;;;;;5044570;28;20173;-87
2021/01/26 13:56:48;;;;;;;16.92;10.40;;;3.20;99.90;;;;;;5013542;28;20088;-86
2021/01/26 13:59:40;;;;;;;20.52;12.18;;;3.20;99.90;;;;;;5026529;28;20136;-86
2021/01/26 14:02:32;;;;;;;19.73;11.12;;;3.20;99.90;;;;;;5026117;28;20559;-85
2021/01/26 14:05:27;;;;;;;17.12;11.43;;;3.20;99.90;;;;;;5038803;28;20486;-83
2021/01/26 14:08:07;;;;;;;17.25;10.00;;;3.20;99.90;;;;;;5040122;28;20085;-88
2021/01/26 14:10:57;;;;;;;14.85;8.30;;;3.10;99.90;;;;;;5073326;28;20091;-89
2021/01/26 14:13:36;;;;;;;13.65;8.80;;;3.10;99.90;;;;;;5062921;28;20524;-86
2021/01/26 14:16:27;;;;;;;17.65;11.60;;;3.10;99.90;;;;;;5041449;28;20096;-88
2021/01/26 14:19:07;;;;;;;20.23;11.20;;;3.10;99.90;;;;;;5076249;28;20107;-87
2021/01/26 14:21:58;;;;;;;16.73;8.63;;;3.10;99.90;;;;;;5049236;28;20089;-87
2021/01/26 14:24:37;;;;;;;16.40;9.80;;;3.00;99.90;;;;;;5054601;28;20156;-87
2021/01/26 14:27:29;;;;;;;15.65;9.77;;;2.90;99.90;;;;;;5081811;28;20096;-87
2021/01/26 14:30:10;;;;;;;16.70;8.77;;;2.80;99.90;;;;;;5015156;28;20091;-88
2021/01/26 14:33:05;;;;;;;16.58;9.75;;;2.80;99.90;;;;;;5083265;28;20143;-87
2021/01/26 14:35:48;;;;;;;18.02;9.50;;;2.70;99.90;;;;;;5058664;28;20102;-87
2021/01/26 14:38:39;;;;;;;17.83;9.68;;;2.60;99.90;;;;;;5006178;28;20101;-87
2021/01/26 14:41:18;;;;;;;20.30;10.85;;;2.60;99.90;;;;;;5040806;28;20423;-86
2021/01/26 14:44:10;;;;;;;14.30;9.38;;;2.50;99.90;;;;;;4999641;28;20525;-86
2021/01/26 14:46:49;;;;;;;25.02;12.10;;;2.50;99.90;;;;;;5038392;28;20112;-86